sensor_id;sensor_type;location;lat;lon;timestamp;P1;durP1;ratioP1;P2;durP2;ratioP2
7961;SDS011;4026;43.652;24.906;2023-03-23T00:00:54;1.77;;;1.50;;
7961;SDS011;4026;43.652;24.906;2023-03-23T00:03:21;2.57;;;1.73;;
7961;SDS011;4026;43.652;24.906;2023-03-23T00:05:50;1.90;;;1.70;;
7961;SDS011;4026;43.652;24.906;2023-03-23T00:08:17;2.73;;;2.10;;
7961;SDS011;4026;43.652;24.906;2023-03-23T00:10:47;1.60;;;1.20;;
7961;SDS011;4026;43.652;24.906;2023-03-23T00:13:17;1.70;;;1.50;;
7961;SDS011;4026;43.652;24.906;2023-03-23T00:15:46;2.13;;;1.43;;
7961;SDS011;4026;43.652;24.906;2023-03-23T00:18:14;2.37;;;1.80;;
7961;SDS011;4026;43.652;24.906;2023-03-23T00:20:46;2.47;;;2.27;;
7961;SDS011;4026;43.652;24.906;2023-03-23T00:23:14;3.03;;;2.07;;
7961;SDS011;4026;43.652;24.906;2023-03-23T00:25:44;4.17;;;2.13;;
7961;SDS011;4026;43.652;24.906;2023-03-23T00:28:12;1.63;;;1.53;;
7961;SDS011;4026;43.652;24.906;2023-03-23T00:30:39;4.00;;;2.03;;
7961;SDS011;4026;43.652;24.906;2023-03-23T00:33:11;3.57;;;1.80;;
7961;SDS011;4026;43.652;24.906;2023-03-23T00:35:39;2.70;;;1.57;;
7961;SDS011;4026;43.652;24.906;2023-03-23T00:38:09;4.30;;;2.50;;
7961;SDS011;4026;43.652;24.906;2023-03-23T00:40:36;3.77;;;2.23;;
7961;SDS011;4026;43.652;24.906;2023-03-23T00:43:03;3.47;;;2.00;;
7961;SDS011;4026;43.652;24.906;2023-03-23T00:45:30;2.57;;;1.97;;
7961;SDS011;4026;43.652;24.906;2023-03-23T00:48:00;2.20;;;1.67;;
7961;SDS011;4026;43.652;24.906;2023-03-23T00:50:31;2.53;;;1.37;;
7961;SDS011;4026;43.652;24.906;2023-03-23T00:52:58;1.23;;;1.13;;
7961;SDS011;4026;43.652;24.906;2023-03-23T00:55:25;2.80;;;2.40;;
7961;SDS011;4026;43.652;24.906;2023-03-23T00:57:52;3.23;;;2.30;;
7961;SDS011;4026;43.652;24.906;2023-03-23T01:00:19;2.70;;;2.23;;
7961;SDS011;4026;43.652;24.906;2023-03-23T01:02:47;2.23;;;1.83;;
7961;SDS011;4026;43.652;24.906;2023-03-23T01:05:16;5.30;;;2.63;;
7961;SDS011;4026;43.652;24.906;2023-03-23T01:07:45;2.53;;;2.20;;
7961;SDS011;4026;43.652;24.906;2023-03-23T01:10:12;5.57;;;2.50;;
7961;SDS011;4026;43.652;24.906;2023-03-23T01:12:41;4.10;;;2.30;;
7961;SDS011;4026;43.652;24.906;2023-03-23T01:15:09;3.97;;;2.33;;
7961;SDS011;4026;43.652;24.906;2023-03-23T01:17:39;2.00;;;1.80;;
7961;SDS011;4026;43.652;24.906;2023-03-23T01:20:07;2.77;;;1.90;;
7961;SDS011;4026;43.652;24.906;2023-03-23T01:22:35;3.80;;;2.57;;
7961;SDS011;4026;43.652;24.906;2023-03-23T01:25:03;2.40;;;2.13;;
7961;SDS011;4026;43.652;24.906;2023-03-23T01:27:31;4.70;;;2.33;;
7961;SDS011;4026;43.652;24.906;2023-03-23T01:29:58;5.00;;;2.90;;
7961;SDS011;4026;43.652;24.906;2023-03-23T01:32:25;4.07;;;2.50;;
7961;SDS011;4026;43.652;24.906;2023-03-23T01:34:52;6.50;;;2.83;;
7961;SDS011;4026;43.652;24.906;2023-03-23T01:37:19;3.00;;;2.30;;
7961;SDS011;4026;43.652;24.906;2023-03-23T01:39:51;5.00;;;3.67;;
7961;SDS011;4026;43.652;24.906;2023-03-23T01:42:21;3.17;;;2.50;;
7961;SDS011;4026;43.652;24.906;2023-03-23T01:47:54;2.93;;;2.30;;
7961;SDS011;4026;43.652;24.906;2023-03-23T01:50:26;4.80;;;3.37;;
7961;SDS011;4026;43.652;24.906;2023-03-23T01:52:55;4.00;;;2.20;;
7961;SDS011;4026;43.652;24.906;2023-03-23T01:55:24;4.03;;;2.73;;
7961;SDS011;4026;43.652;24.906;2023-03-23T01:57:55;2.60;;;2.40;;
7961;SDS011;4026;43.652;24.906;2023-03-23T02:00:23;4.57;;;2.80;;
7961;SDS011;4026;43.652;24.906;2023-03-23T02:02:51;4.17;;;3.30;;
7961;SDS011;4026;43.652;24.906;2023-03-23T02:05:21;3.30;;;2.40;;
7961;SDS011;4026;43.652;24.906;2023-03-23T02:07:53;5.50;;;2.53;;
7961;SDS011;4026;43.652;24.906;2023-03-23T02:10:27;3.90;;;2.83;;
7961;SDS011;4026;43.652;24.906;2023-03-23T02:12:56;4.00;;;2.83;;
7961;SDS011;4026;43.652;24.906;2023-03-23T02:15:24;3.83;;;2.50;;
7961;SDS011;4026;43.652;24.906;2023-03-23T02:17:56;4.57;;;2.27;;
7961;SDS011;4026;43.652;24.906;2023-03-23T02:20:33;2.23;;;1.80;;
7961;SDS011;4026;43.652;24.906;2023-03-23T02:26:26;4.17;;;2.67;;
7961;SDS011;4026;43.652;24.906;2023-03-23T02:29:24;6.10;;;2.80;;
7961;SDS011;4026;43.652;24.906;2023-03-23T02:32:12;3.93;;;2.37;;
7961;SDS011;4026;43.652;24.906;2023-03-23T02:34:49;3.47;;;3.00;;
7961;SDS011;4026;43.652;24.906;2023-03-23T02:37:21;3.73;;;2.77;;
7961;SDS011;4026;43.652;24.906;2023-03-23T02:39:54;3.87;;;2.33;;
7961;SDS011;4026;43.652;24.906;2023-03-23T02:42:25;4.50;;;2.77;;
7961;SDS011;4026;43.652;24.906;2023-03-23T02:44:57;2.97;;;2.67;;
7961;SDS011;4026;43.652;24.906;2023-03-23T02:47:29;3.73;;;2.00;;
7961;SDS011;4026;43.652;24.906;2023-03-23T02:49:58;4.80;;;3.20;;
7961;SDS011;4026;43.652;24.906;2023-03-23T02:52:27;3.30;;;2.93;;
7961;SDS011;4026;43.652;24.906;2023-03-23T02:54:56;5.43;;;3.17;;
7961;SDS011;4026;43.652;24.906;2023-03-23T02:57:24;4.23;;;2.83;;
7961;SDS011;4026;43.652;24.906;2023-03-23T02:59:53;4.53;;;2.70;;
7961;SDS011;4026;43.652;24.906;2023-03-23T03:02:21;6.33;;;3.73;;
7961;SDS011;4026;43.652;24.906;2023-03-23T03:04:52;3.57;;;2.63;;
7961;SDS011;4026;43.652;24.906;2023-03-23T03:07:32;4.33;;;2.77;;
7961;SDS011;4026;43.652;24.906;2023-03-23T03:10:04;7.93;;;3.60;;
7961;SDS011;4026;43.652;24.906;2023-03-23T03:12:41;6.03;;;2.93;;
7961;SDS011;4026;43.652;24.906;2023-03-23T03:15:17;6.53;;;3.27;;
7961;SDS011;4026;43.652;24.906;2023-03-23T03:17:53;5.93;;;3.13;;
7961;SDS011;4026;43.652;24.906;2023-03-23T03:20:27;4.27;;;2.93;;
7961;SDS011;4026;43.652;24.906;2023-03-23T03:22:58;5.13;;;2.83;;
7961;SDS011;4026;43.652;24.906;2023-03-23T03:25:27;4.83;;;3.17;;
7961;SDS011;4026;43.652;24.906;2023-03-23T03:27:54;2.93;;;2.47;;
7961;SDS011;4026;43.652;24.906;2023-03-23T03:30:24;3.67;;;2.73;;
7961;SDS011;4026;43.652;24.906;2023-03-23T03:32:56;5.10;;;3.40;;
7961;SDS011;4026;43.652;24.906;2023-03-23T03:35:25;4.43;;;2.80;;
7961;SDS011;4026;43.652;24.906;2023-03-23T03:37:52;4.03;;;2.63;;
7961;SDS011;4026;43.652;24.906;2023-03-23T03:40:22;5.80;;;2.63;;
7961;SDS011;4026;43.652;24.906;2023-03-23T03:42:49;8.53;;;3.80;;
7961;SDS011;4026;43.652;24.906;2023-03-23T03:45:17;7.83;;;4.20;;
7961;SDS011;4026;43.652;24.906;2023-03-23T03:47:45;4.07;;;3.57;;
7961;SDS011;4026;43.652;24.906;2023-03-23T03:50:12;4.03;;;2.10;;
7961;SDS011;4026;43.652;24.906;2023-03-23T03:52:39;2.70;;;1.77;;
7961;SDS011;4026;43.652;24.906;2023-03-23T03:55:07;3.20;;;2.73;;
7961;SDS011;4026;43.652;24.906;2023-03-23T03:57:36;4.03;;;2.60;;
7961;SDS011;4026;43.652;24.906;2023-03-23T04:00:04;2.87;;;2.00;;
7961;SDS011;4026;43.652;24.906;2023-03-23T04:02:42;6.40;;;3.57;;
7961;SDS011;4026;43.652;24.906;2023-03-23T04:05:12;5.50;;;3.10;;
7961;SDS011;4026;43.652;24.906;2023-03-23T04:07:39;6.57;;;3.10;;
7961;SDS011;4026;43.652;24.906;2023-03-23T04:10:07;3.90;;;3.13;;
7961;SDS011;4026;43.652;24.906;2023-03-23T04:12:37;4.57;;;3.27;;
7961;SDS011;4026;43.652;24.906;2023-03-23T04:15:04;5.80;;;3.77;;
7961;SDS011;4026;43.652;24.906;2023-03-23T04:17:32;4.37;;;2.73;;
7961;SDS011;4026;43.652;24.906;2023-03-23T04:19:59;7.20;;;3.67;;
7961;SDS011;4026;43.652;24.906;2023-03-23T04:22:36;4.80;;;3.50;;
7961;SDS011;4026;43.652;24.906;2023-03-23T04:25:03;3.63;;;2.67;;
7961;SDS011;4026;43.652;24.906;2023-03-23T04:27:31;5.60;;;3.00;;
7961;SDS011;4026;43.652;24.906;2023-03-23T04:29:59;5.50;;;2.80;;
7961;SDS011;4026;43.652;24.906;2023-03-23T04:32:28;5.70;;;3.03;;
7961;SDS011;4026;43.652;24.906;2023-03-23T04:34:55;5.30;;;3.77;;
7961;SDS011;4026;43.652;24.906;2023-03-23T04:37:23;5.70;;;2.57;;
7961;SDS011;4026;43.652;24.906;2023-03-23T04:39:54;4.43;;;3.33;;
7961;SDS011;4026;43.652;24.906;2023-03-23T04:42:25;3.87;;;2.80;;
7961;SDS011;4026;43.652;24.906;2023-03-23T04:44:53;4.50;;;3.10;;
7961;SDS011;4026;43.652;24.906;2023-03-23T04:47:22;3.90;;;3.17;;
7961;SDS011;4026;43.652;24.906;2023-03-23T04:49:49;3.60;;;3.00;;
7961;SDS011;4026;43.652;24.906;2023-03-23T04:52:17;6.23;;;4.23;;
7961;SDS011;4026;43.652;24.906;2023-03-23T04:54:45;6.50;;;4.07;;
7961;SDS011;4026;43.652;24.906;2023-03-23T04:57:12;4.67;;;3.40;;
7961;SDS011;4026;43.652;24.906;2023-03-23T04:59:40;4.20;;;3.50;;
7961;SDS011;4026;43.652;24.906;2023-03-23T05:02:08;5.17;;;3.80;;
7961;SDS011;4026;43.652;24.906;2023-03-23T05:04:37;5.87;;;3.27;;
7961;SDS011;4026;43.652;24.906;2023-03-23T05:07:05;7.43;;;3.83;;
7961;SDS011;4026;43.652;24.906;2023-03-23T05:09:33;6.13;;;4.53;;
7961;SDS011;4026;43.652;24.906;2023-03-23T05:12:03;5.77;;;4.13;;
7961;SDS011;4026;43.652;24.906;2023-03-23T05:14:31;6.37;;;3.70;;
7961;SDS011;4026;43.652;24.906;2023-03-23T05:16:57;7.53;;;4.83;;
7961;SDS011;4026;43.652;24.906;2023-03-23T05:19:24;5.63;;;3.27;;
7961;SDS011;4026;43.652;24.906;2023-03-23T05:21:56;6.03;;;3.50;;
7961;SDS011;4026;43.652;24.906;2023-03-23T05:24:28;3.70;;;2.67;;
7961;SDS011;4026;43.652;24.906;2023-03-23T05:26:57;7.83;;;3.73;;
7961;SDS011;4026;43.652;24.906;2023-03-23T05:29:24;3.40;;;3.10;;
7961;SDS011;4026;43.652;24.906;2023-03-23T05:31:52;4.23;;;3.30;;
7961;SDS011;4026;43.652;24.906;2023-03-23T05:34:20;5.87;;;3.10;;
7961;SDS011;4026;43.652;24.906;2023-03-23T05:36:47;4.43;;;3.20;;
7961;SDS011;4026;43.652;24.906;2023-03-23T05:39:19;5.40;;;3.33;;
7961;SDS011;4026;43.652;24.906;2023-03-23T05:41:46;4.73;;;2.70;;
7961;SDS011;4026;43.652;24.906;2023-03-23T05:44:13;7.83;;;3.90;;
7961;SDS011;4026;43.652;24.906;2023-03-23T05:46:40;4.57;;;3.20;;
7961;SDS011;4026;43.652;24.906;2023-03-23T05:49:08;4.70;;;3.10;;
7961;SDS011;4026;43.652;24.906;2023-03-23T05:51:35;4.60;;;3.53;;
7961;SDS011;4026;43.652;24.906;2023-03-23T05:54:02;6.73;;;3.60;;
7961;SDS011;4026;43.652;24.906;2023-03-23T05:56:30;5.80;;;2.97;;
7961;SDS011;4026;43.652;24.906;2023-03-23T05:58:57;6.37;;;3.70;;
7961;SDS011;4026;43.652;24.906;2023-03-23T06:01:24;8.73;;;2.87;;
7961;SDS011;4026;43.652;24.906;2023-03-23T06:03:51;4.37;;;3.13;;
7961;SDS011;4026;43.652;24.906;2023-03-23T06:06:23;4.50;;;3.10;;
7961;SDS011;4026;43.652;24.906;2023-03-23T06:08:50;5.03;;;3.63;;
7961;SDS011;4026;43.652;24.906;2023-03-23T06:11:17;6.90;;;3.10;;
7961;SDS011;4026;43.652;24.906;2023-03-23T06:13:46;5.33;;;2.83;;
7961;SDS011;4026;43.652;24.906;2023-03-23T06:16:14;4.03;;;3.57;;
7961;SDS011;4026;43.652;24.906;2023-03-23T06:18:41;4.83;;;2.73;;
7961;SDS011;4026;43.652;24.906;2023-03-23T06:21:08;7.00;;;3.67;;
7961;SDS011;4026;43.652;24.906;2023-03-23T06:23:35;3.57;;;2.73;;
7961;SDS011;4026;43.652;24.906;2023-03-23T06:26:03;4.33;;;2.67;;
7961;SDS011;4026;43.652;24.906;2023-03-23T06:28:31;5.20;;;3.40;;
7961;SDS011;4026;43.652;24.906;2023-03-23T06:31:00;6.00;;;3.57;;
7961;SDS011;4026;43.652;24.906;2023-03-23T06:33:28;8.83;;;3.40;;
7961;SDS011;4026;43.652;24.906;2023-03-23T06:35:55;7.63;;;3.90;;
7961;SDS011;4026;43.652;24.906;2023-03-23T06:38:22;9.60;;;4.27;;
7961;SDS011;4026;43.652;24.906;2023-03-23T06:40:51;6.20;;;3.50;;
7961;SDS011;4026;43.652;24.906;2023-03-23T06:43:18;5.97;;;3.33;;
7961;SDS011;4026;43.652;24.906;2023-03-23T06:45:45;4.83;;;3.23;;
7961;SDS011;4026;43.652;24.906;2023-03-23T06:48:14;8.50;;;3.57;;
7961;SDS011;4026;43.652;24.906;2023-03-23T06:50:42;6.83;;;3.70;;
7961;SDS011;4026;43.652;24.906;2023-03-23T06:53:10;5.50;;;4.07;;
7961;SDS011;4026;43.652;24.906;2023-03-23T06:55:37;6.10;;;3.13;;
7961;SDS011;4026;43.652;24.906;2023-03-23T06:58:04;10.17;;;3.97;;
7961;SDS011;4026;43.652;24.906;2023-03-23T07:00:32;5.47;;;2.90;;
7961;SDS011;4026;43.652;24.906;2023-03-23T07:02:59;6.83;;;4.07;;
7961;SDS011;4026;43.652;24.906;2023-03-23T07:05:27;7.10;;;3.30;;
7961;SDS011;4026;43.652;24.906;2023-03-23T07:07:55;4.10;;;3.27;;
7961;SDS011;4026;43.652;24.906;2023-03-23T07:10:22;5.40;;;3.50;;
7961;SDS011;4026;43.652;24.906;2023-03-23T07:12:49;5.53;;;3.60;;
7961;SDS011;4026;43.652;24.906;2023-03-23T07:15:16;6.10;;;4.60;;
7961;SDS011;4026;43.652;24.906;2023-03-23T07:17:43;7.67;;;4.00;;
7961;SDS011;4026;43.652;24.906;2023-03-23T07:20:11;6.57;;;3.67;;
7961;SDS011;4026;43.652;24.906;2023-03-23T07:22:41;6.27;;;3.43;;
7961;SDS011;4026;43.652;24.906;2023-03-23T07:25:07;7.30;;;3.53;;
7961;SDS011;4026;43.652;24.906;2023-03-23T07:27:35;6.40;;;3.43;;
7961;SDS011;4026;43.652;24.906;2023-03-23T07:30:03;6.03;;;3.77;;
7961;SDS011;4026;43.652;24.906;2023-03-23T07:32:30;7.07;;;3.67;;
7961;SDS011;4026;43.652;24.906;2023-03-23T07:34:57;5.37;;;3.63;;
7961;SDS011;4026;43.652;24.906;2023-03-23T07:37:24;8.17;;;3.50;;
7961;SDS011;4026;43.652;24.906;2023-03-23T07:39:53;8.83;;;3.87;;
7961;SDS011;4026;43.652;24.906;2023-03-23T07:42:20;6.83;;;3.87;;
7961;SDS011;4026;43.652;24.906;2023-03-23T07:44:46;7.33;;;3.80;;
7961;SDS011;4026;43.652;24.906;2023-03-23T07:47:13;7.43;;;4.13;;
7961;SDS011;4026;43.652;24.906;2023-03-23T07:49:40;6.03;;;3.47;;
7961;SDS011;4026;43.652;24.906;2023-03-23T07:52:07;9.57;;;4.43;;
7961;SDS011;4026;43.652;24.906;2023-03-23T07:54:36;10.43;;;4.23;;
7961;SDS011;4026;43.652;24.906;2023-03-23T07:57:04;6.83;;;3.87;;
7961;SDS011;4026;43.652;24.906;2023-03-23T07:59:32;11.03;;;4.93;;
7961;SDS011;4026;43.652;24.906;2023-03-23T08:01:58;8.33;;;4.63;;
7961;SDS011;4026;43.652;24.906;2023-03-23T08:04:26;10.13;;;4.57;;
7961;SDS011;4026;43.652;24.906;2023-03-23T08:06:53;10.07;;;5.50;;
7961;SDS011;4026;43.652;24.906;2023-03-23T08:09:20;10.77;;;5.47;;
7961;SDS011;4026;43.652;24.906;2023-03-23T08:11:46;9.87;;;4.93;;
7961;SDS011;4026;43.652;24.906;2023-03-23T08:14:15;10.77;;;4.83;;
7961;SDS011;4026;43.652;24.906;2023-03-23T08:16:42;12.17;;;4.60;;
7961;SDS011;4026;43.652;24.906;2023-03-23T08:19:08;8.90;;;4.57;;
7961;SDS011;4026;43.652;24.906;2023-03-23T08:21:35;9.87;;;4.67;;
7961;SDS011;4026;43.652;24.906;2023-03-23T08:24:02;9.27;;;4.57;;
7961;SDS011;4026;43.652;24.906;2023-03-23T08:26:30;10.80;;;4.87;;
7961;SDS011;4026;43.652;24.906;2023-03-23T08:28:57;8.63;;;4.37;;
7961;SDS011;4026;43.652;24.906;2023-03-23T08:31:26;6.93;;;3.90;;
7961;SDS011;4026;43.652;24.906;2023-03-23T08:33:53;9.83;;;5.07;;
7961;SDS011;4026;43.652;24.906;2023-03-23T08:36:21;10.23;;;4.80;;
7961;SDS011;4026;43.652;24.906;2023-03-23T08:38:48;8.50;;;5.17;;
7961;SDS011;4026;43.652;24.906;2023-03-23T08:41:17;8.80;;;5.13;;
7961;SDS011;4026;43.652;24.906;2023-03-23T08:43:44;7.27;;;4.13;;
7961;SDS011;4026;43.652;24.906;2023-03-23T08:46:11;9.00;;;4.50;;
7961;SDS011;4026;43.652;24.906;2023-03-23T08:48:39;10.13;;;4.77;;
7961;SDS011;4026;43.652;24.906;2023-03-23T08:51:06;9.77;;;4.67;;
7961;SDS011;4026;43.652;24.906;2023-03-23T08:53:33;7.70;;;4.67;;
7961;SDS011;4026;43.652;24.906;2023-03-23T08:56:05;8.70;;;5.07;;
7961;SDS011;4026;43.652;24.906;2023-03-23T08:58:33;9.60;;;4.83;;
7961;SDS011;4026;43.652;24.906;2023-03-23T09:01:00;10.43;;;4.50;;
7961;SDS011;4026;43.652;24.906;2023-03-23T09:03:27;9.30;;;4.40;;
7961;SDS011;4026;43.652;24.906;2023-03-23T09:05:59;8.37;;;4.63;;
7961;SDS011;4026;43.652;24.906;2023-03-23T09:08:27;8.63;;;4.17;;
7961;SDS011;4026;43.652;24.906;2023-03-23T09:10:55;5.60;;;3.57;;
7961;SDS011;4026;43.652;24.906;2023-03-23T09:13:21;6.73;;;4.60;;
7961;SDS011;4026;43.652;24.906;2023-03-23T09:15:49;8.57;;;4.70;;
7961;SDS011;4026;43.652;24.906;2023-03-23T09:18:16;8.70;;;4.13;;
7961;SDS011;4026;43.652;24.906;2023-03-23T09:20:43;7.60;;;4.20;;
7961;SDS011;4026;43.652;24.906;2023-03-23T09:23:11;7.67;;;4.40;;
7961;SDS011;4026;43.652;24.906;2023-03-23T09:25:40;8.63;;;4.23;;
7961;SDS011;4026;43.652;24.906;2023-03-23T09:28:07;6.53;;;4.13;;
7961;SDS011;4026;43.652;24.906;2023-03-23T09:30:35;8.00;;;4.47;;
7961;SDS011;4026;43.652;24.906;2023-03-23T09:33:03;7.23;;;4.37;;
7961;SDS011;4026;43.652;24.906;2023-03-23T09:35:31;8.70;;;4.13;;
7961;SDS011;4026;43.652;24.906;2023-03-23T09:37:59;10.83;;;4.83;;
7961;SDS011;4026;43.652;24.906;2023-03-23T09:40:28;8.00;;;4.70;;
7961;SDS011;4026;43.652;24.906;2023-03-23T09:43:09;10.87;;;4.97;;
7961;SDS011;4026;43.652;24.906;2023-03-23T09:45:48;9.37;;;5.00;;
7961;SDS011;4026;43.652;24.906;2023-03-23T09:48:27;10.60;;;4.60;;
7961;SDS011;4026;43.652;24.906;2023-03-23T09:51:03;11.23;;;4.70;;
7961;SDS011;4026;43.652;24.906;2023-03-23T09:53:36;8.73;;;4.60;;
7961;SDS011;4026;43.652;24.906;2023-03-23T09:56:10;9.57;;;5.00;;
7961;SDS011;4026;43.652;24.906;2023-03-23T09:58:40;10.67;;;5.23;;
7961;SDS011;4026;43.652;24.906;2023-03-23T10:01:14;8.23;;;4.47;;
7961;SDS011;4026;43.652;24.906;2023-03-23T10:03:44;9.33;;;4.47;;
7961;SDS011;4026;43.652;24.906;2023-03-23T10:06:13;8.10;;;4.40;;
7961;SDS011;4026;43.652;24.906;2023-03-23T10:08:43;8.50;;;4.10;;
7961;SDS011;4026;43.652;24.906;2023-03-23T10:11:16;8.20;;;4.60;;
7961;SDS011;4026;43.652;24.906;2023-03-23T10:13:53;7.37;;;4.03;;
7961;SDS011;4026;43.652;24.906;2023-03-23T10:16:32;9.37;;;4.77;;
7961;SDS011;4026;43.652;24.906;2023-03-23T10:19:03;8.47;;;4.50;;
7961;SDS011;4026;43.652;24.906;2023-03-23T10:21:44;7.20;;;4.17;;
7961;SDS011;4026;43.652;24.906;2023-03-23T10:24:19;11.70;;;5.00;;
7961;SDS011;4026;43.652;24.906;2023-03-23T10:26:54;9.53;;;4.60;;
7961;SDS011;4026;43.652;24.906;2023-03-23T10:29:32;10.43;;;5.33;;
7961;SDS011;4026;43.652;24.906;2023-03-23T10:32:04;8.30;;;4.70;;
7961;SDS011;4026;43.652;24.906;2023-03-23T10:34:40;10.47;;;5.57;;
7961;SDS011;4026;43.652;24.906;2023-03-23T10:37:12;12.50;;;6.07;;
7961;SDS011;4026;43.652;24.906;2023-03-23T10:39:45;10.47;;;5.40;;
7961;SDS011;4026;43.652;24.906;2023-03-23T10:42:22;9.97;;;4.93;;
7961;SDS011;4026;43.652;24.906;2023-03-23T10:44:51;9.20;;;5.23;;
7961;SDS011;4026;43.652;24.906;2023-03-23T10:47:18;7.57;;;5.27;;
7961;SDS011;4026;43.652;24.906;2023-03-23T10:49:47;8.47;;;5.57;;
7961;SDS011;4026;43.652;24.906;2023-03-23T10:52:24;10.13;;;4.70;;
7961;SDS011;4026;43.652;24.906;2023-03-23T10:54:55;9.47;;;4.33;;
7961;SDS011;4026;43.652;24.906;2023-03-23T10:57:26;8.50;;;4.33;;
7961;SDS011;4026;43.652;24.906;2023-03-23T10:59:58;8.73;;;4.63;;
7961;SDS011;4026;43.652;24.906;2023-03-23T11:02:31;9.17;;;4.90;;
7961;SDS011;4026;43.652;24.906;2023-03-23T11:05:00;10.67;;;5.60;;
7961;SDS011;4026;43.652;24.906;2023-03-23T11:07:29;10.93;;;4.80;;
7961;SDS011;4026;43.652;24.906;2023-03-23T11:10:04;7.50;;;3.70;;
7961;SDS011;4026;43.652;24.906;2023-03-23T11:12:44;8.50;;;4.27;;
7961;SDS011;4026;43.652;24.906;2023-03-23T11:15:27;10.23;;;4.83;;
7961;SDS011;4026;43.652;24.906;2023-03-23T11:17:59;7.70;;;4.27;;
7961;SDS011;4026;43.652;24.906;2023-03-23T11:20:29;8.17;;;4.43;;
7961;SDS011;4026;43.652;24.906;2023-03-23T11:23:07;5.77;;;3.50;;
7961;SDS011;4026;43.652;24.906;2023-03-23T11:25:50;6.57;;;4.10;;
7961;SDS011;4026;43.652;24.906;2023-03-23T11:28:22;10.53;;;6.13;;
7961;SDS011;4026;43.652;24.906;2023-03-23T11:30:54;8.73;;;4.50;;
7961;SDS011;4026;43.652;24.906;2023-03-23T11:33:22;7.30;;;4.37;;
7961;SDS011;4026;43.652;24.906;2023-03-23T11:35:51;7.63;;;4.33;;
7961;SDS011;4026;43.652;24.906;2023-03-23T11:38:21;10.07;;;5.33;;
7961;SDS011;4026;43.652;24.906;2023-03-23T11:40:51;10.93;;;5.33;;
7961;SDS011;4026;43.652;24.906;2023-03-23T11:43:19;9.83;;;4.30;;
7961;SDS011;4026;43.652;24.906;2023-03-23T11:45:52;8.77;;;5.27;;
7961;SDS011;4026;43.652;24.906;2023-03-23T11:48:29;9.27;;;4.57;;
7961;SDS011;4026;43.652;24.906;2023-03-23T11:51:02;8.73;;;4.93;;
7961;SDS011;4026;43.652;24.906;2023-03-23T11:53:39;9.17;;;4.73;;
7961;SDS011;4026;43.652;24.906;2023-03-23T11:56:14;8.73;;;4.77;;
7961;SDS011;4026;43.652;24.906;2023-03-23T11:58:47;8.27;;;4.70;;
7961;SDS011;4026;43.652;24.906;2023-03-23T12:01:18;8.57;;;4.80;;
7961;SDS011;4026;43.652;24.906;2023-03-23T12:04:19;8.33;;;4.73;;
7961;SDS011;4026;43.652;24.906;2023-03-23T12:07:14;6.97;;;4.17;;
7961;SDS011;4026;43.652;24.906;2023-03-23T12:09:56;9.23;;;3.80;;
7961;SDS011;4026;43.652;24.906;2023-03-23T12:12:31;9.13;;;4.53;;
7961;SDS011;4026;43.652;24.906;2023-03-23T12:15:10;8.70;;;5.27;;
7961;SDS011;4026;43.652;24.906;2023-03-23T12:17:49;9.37;;;4.80;;
7961;SDS011;4026;43.652;24.906;2023-03-23T12:20:25;6.20;;;4.07;;
7961;SDS011;4026;43.652;24.906;2023-03-23T12:23:05;7.70;;;4.43;;
7961;SDS011;4026;43.652;24.906;2023-03-23T12:25:43;7.23;;;4.33;;
7961;SDS011;4026;43.652;24.906;2023-03-23T12:28:30;7.90;;;4.97;;
7961;SDS011;4026;43.652;24.906;2023-03-23T12:31:09;10.17;;;4.60;;
7961;SDS011;4026;43.652;24.906;2023-03-23T12:33:45;7.33;;;4.33;;
7961;SDS011;4026;43.652;24.906;2023-03-23T12:36:24;7.47;;;4.37;;
7961;SDS011;4026;43.652;24.906;2023-03-23T12:39:05;7.50;;;4.37;;
7961;SDS011;4026;43.652;24.906;2023-03-23T12:41:42;7.13;;;4.07;;
7961;SDS011;4026;43.652;24.906;2023-03-23T12:44:14;7.07;;;4.50;;
7961;SDS011;4026;43.652;24.906;2023-03-23T12:46:52;7.10;;;4.53;;
7961;SDS011;4026;43.652;24.906;2023-03-23T12:49:36;8.73;;;4.80;;
7961;SDS011;4026;43.652;24.906;2023-03-23T12:52:10;9.73;;;4.40;;
7961;SDS011;4026;43.652;24.906;2023-03-23T12:54:42;9.57;;;4.57;;
7961;SDS011;4026;43.652;24.906;2023-03-23T12:57:19;14.73;;;5.70;;
7961;SDS011;4026;43.652;24.906;2023-03-23T12:59:53;12.37;;;6.07;;
7961;SDS011;4026;43.652;24.906;2023-03-23T13:02:24;11.73;;;5.47;;
7961;SDS011;4026;43.652;24.906;2023-03-23T13:04:56;8.60;;;4.70;;
7961;SDS011;4026;43.652;24.906;2023-03-23T13:07:29;7.60;;;4.67;;
7961;SDS011;4026;43.652;24.906;2023-03-23T13:10:02;7.33;;;4.57;;
7961;SDS011;4026;43.652;24.906;2023-03-23T13:12:32;8.07;;;4.23;;
7961;SDS011;4026;43.652;24.906;2023-03-23T13:15:06;8.90;;;4.60;;
7961;SDS011;4026;43.652;24.906;2023-03-23T13:17:47;9.07;;;4.20;;
7961;SDS011;4026;43.652;24.906;2023-03-23T13:20:36;8.43;;;4.13;;
7961;SDS011;4026;43.652;24.906;2023-03-23T13:23:11;5.80;;;3.93;;
7961;SDS011;4026;43.652;24.906;2023-03-23T13:25:47;7.93;;;4.23;;
7961;SDS011;4026;43.652;24.906;2023-03-23T13:28:17;5.13;;;3.60;;
7961;SDS011;4026;43.652;24.906;2023-03-23T13:30:54;9.17;;;4.20;;
7961;SDS011;4026;43.652;24.906;2023-03-23T13:33:30;7.53;;;4.13;;
7961;SDS011;4026;43.652;24.906;2023-03-23T13:36:04;7.60;;;4.07;;
7961;SDS011;4026;43.652;24.906;2023-03-23T13:38:35;7.50;;;3.83;;
7961;SDS011;4026;43.652;24.906;2023-03-23T13:41:06;9.23;;;4.77;;
7961;SDS011;4026;43.652;24.906;2023-03-23T13:43:36;6.93;;;4.27;;
7961;SDS011;4026;43.652;24.906;2023-03-23T13:46:11;7.50;;;4.20;;
7961;SDS011;4026;43.652;24.906;2023-03-23T13:49:02;6.33;;;4.30;;
7961;SDS011;4026;43.652;24.906;2023-03-23T13:51:33;7.60;;;4.17;;
7961;SDS011;4026;43.652;24.906;2023-03-23T13:54:06;7.13;;;4.60;;
7961;SDS011;4026;43.652;24.906;2023-03-23T13:56:41;8.47;;;4.53;;
7961;SDS011;4026;43.652;24.906;2023-03-23T13:59:14;7.97;;;4.43;;
7961;SDS011;4026;43.652;24.906;2023-03-23T14:01:42;8.43;;;4.03;;
7961;SDS011;4026;43.652;24.906;2023-03-23T14:04:12;8.10;;;4.17;;
7961;SDS011;4026;43.652;24.906;2023-03-23T14:06:41;6.63;;;3.63;;
7961;SDS011;4026;43.652;24.906;2023-03-23T14:09:11;6.80;;;3.63;;
7961;SDS011;4026;43.652;24.906;2023-03-23T14:11:45;5.73;;;3.43;;
7961;SDS011;4026;43.652;24.906;2023-03-23T14:14:18;5.60;;;3.57;;
7961;SDS011;4026;43.652;24.906;2023-03-23T14:16:50;7.10;;;3.90;;
7961;SDS011;4026;43.652;24.906;2023-03-23T14:19:21;7.03;;;4.00;;
7961;SDS011;4026;43.652;24.906;2023-03-23T14:21:52;7.23;;;4.03;;
7961;SDS011;4026;43.652;24.906;2023-03-23T14:24:21;5.77;;;3.87;;
7961;SDS011;4026;43.652;24.906;2023-03-23T14:26:50;8.43;;;4.17;;
7961;SDS011;4026;43.652;24.906;2023-03-23T14:29:19;5.43;;;4.13;;
7961;SDS011;4026;43.652;24.906;2023-03-23T14:31:48;7.53;;;3.87;;
7961;SDS011;4026;43.652;24.906;2023-03-23T14:34:23;6.60;;;3.87;;
7961;SDS011;4026;43.652;24.906;2023-03-23T14:36:52;11.10;;;6.07;;
7961;SDS011;4026;43.652;24.906;2023-03-23T14:39:22;4.30;;;3.30;;
7961;SDS011;4026;43.652;24.906;2023-03-23T14:41:52;7.87;;;3.73;;
7961;SDS011;4026;43.652;24.906;2023-03-23T14:44:21;5.63;;;3.97;;
7961;SDS011;4026;43.652;24.906;2023-03-23T14:46:50;5.83;;;3.33;;
7961;SDS011;4026;43.652;24.906;2023-03-23T14:49:19;5.97;;;3.67;;
7961;SDS011;4026;43.652;24.906;2023-03-23T14:51:53;4.97;;;3.53;;
7961;SDS011;4026;43.652;24.906;2023-03-23T14:54:22;7.60;;;4.33;;
7961;SDS011;4026;43.652;24.906;2023-03-23T14:56:50;5.77;;;3.47;;
7961;SDS011;4026;43.652;24.906;2023-03-23T14:59:17;8.23;;;3.83;;
7961;SDS011;4026;43.652;24.906;2023-03-23T15:01:45;7.07;;;3.70;;
7961;SDS011;4026;43.652;24.906;2023-03-23T15:04:14;5.63;;;3.57;;
7961;SDS011;4026;43.652;24.906;2023-03-23T15:06:45;4.60;;;3.13;;
7961;SDS011;4026;43.652;24.906;2023-03-23T15:09:16;5.33;;;3.90;;
7961;SDS011;4026;43.652;24.906;2023-03-23T15:11:50;6.60;;;4.03;;
7961;SDS011;4026;43.652;24.906;2023-03-23T15:14:20;7.23;;;4.00;;
7961;SDS011;4026;43.652;24.906;2023-03-23T15:16:49;6.47;;;3.27;;
7961;SDS011;4026;43.652;24.906;2023-03-23T15:19:19;6.03;;;3.33;;
7961;SDS011;4026;43.652;24.906;2023-03-23T15:21:52;7.30;;;3.80;;
7961;SDS011;4026;43.652;24.906;2023-03-23T15:24:26;6.60;;;3.93;;
7961;SDS011;4026;43.652;24.906;2023-03-23T15:27:02;5.23;;;3.40;;